sensor_id;sensor_type;location;lat;lon;timestamp;temperature;humidity
62904;DHT22;49000;50.698;13.322;2023-03-31T00:00:26;8.10;99.90
62904;DHT22;49000;50.698;13.322;2023-03-31T00:02:51;8.10;99.90
62904;DHT22;49000;50.698;13.322;2023-03-31T00:05:19;8.10;99.90
62904;DHT22;49000;50.698;13.322;2023-03-31T00:07:46;8.10;99.90
62904;DHT22;49000;50.698;13.322;2023-03-31T00:10:13;8.10;99.90
62904;DHT22;49000;50.698;13.322;2023-03-31T00:12:39;8.00;99.90
62904;DHT22;49000;50.698;13.322;2023-03-31T00:15:05;8.00;99.90
62904;DHT22;49000;50.698;13.322;2023-03-31T00:17:31;8.10;99.90
62904;DHT22;49000;50.698;13.322;2023-03-31T00:19:57;8.10;99.90
62904;DHT22;49000;50.698;13.322;2023-03-31T00:22:25;7.80;99.90
62904;DHT22;49000;50.698;13.322;2023-03-31T00:24:52;8.00;99.90
62904;DHT22;49000;50.698;13.322;2023-03-31T00:27:17;8.20;99.90
62904;DHT22;49000;50.698;13.322;2023-03-31T00:29:43;8.10;99.90
62904;DHT22;49000;50.698;13.322;2023-03-31T00:32:10;8.00;99.90
62904;DHT22;49000;50.698;13.322;2023-03-31T00:34:36;8.10;99.90
62904;DHT22;49000;50.698;13.322;2023-03-31T00:37:02;8.10;99.90
62904;DHT22;49000;50.698;13.322;2023-03-31T00:39:28;8.10;99.90
62904;DHT22;49000;50.698;13.322;2023-03-31T00:41:58;8.20;99.90
62904;DHT22;49000;50.698;13.322;2023-03-31T00:44:24;8.20;99.90
62904;DHT22;49000;50.698;13.322;2023-03-31T00:47:05;8.20;99.90
62904;DHT22;49000;50.698;13.322;2023-03-31T00:49:39;8.20;99.90
62904;DHT22;49000;50.698;13.322;2023-03-31T00:52:12;8.20;99.90
62904;DHT22;49000;50.698;13.322;2023-03-31T00:54:40;8.20;99.90
62904;DHT22;49000;50.698;13.322;2023-03-31T00:57:07;7.90;99.90
62904;DHT22;49000;50.698;13.322;2023-03-31T00:59:38;8.10;99.90
62904;DHT22;49000;50.698;13.322;2023-03-31T01:02:04;7.80;99.90
62904;DHT22;49000;50.698;13.322;2023-03-31T01:04:34;7.70;99.90
62904;DHT22;49000;50.698;13.322;2023-03-31T01:07:26;8.00;99.90
62904;DHT22;49000;50.698;13.322;2023-03-31T01:09:58;7.90;99.90
62904;DHT22;49000;50.698;13.322;2023-03-31T01:12:24;8.00;99.90
62904;DHT22;49000;50.698;13.322;2023-03-31T01:14:51;7.80;99.90
62904;DHT22;49000;50.698;13.322;2023-03-31T01:17:18;7.70;99.90
62904;DHT22;49000;50.698;13.322;2023-03-31T01:20:13;7.30;99.90
62904;DHT22;49000;50.698;13.322;2023-03-31T01:23:12;7.60;99.90
62904;DHT22;49000;50.698;13.322;2023-03-31T01:31:01;7.60;99.90
62904;DHT22;49000;50.698;13.322;2023-03-31T01:37:10;7.60;99.90
62904;DHT22;49000;50.698;13.322;2023-03-31T01:40:00;7.70;99.90
62904;DHT22;49000;50.698;13.322;2023-03-31T01:45:56;7.60;99.90
62904;DHT22;49000;50.698;13.322;2023-03-31T01:48:46;7.50;99.90
62904;DHT22;49000;50.698;13.322;2023-03-31T01:54:13;7.30;99.90
62904;DHT22;49000;50.698;13.322;2023-03-31T01:56:48;7.40;99.90
62904;DHT22;49000;50.698;13.322;2023-03-31T01:59:27;7.20;99.90
62904;DHT22;49000;50.698;13.322;2023-03-31T02:02:04;7.00;99.90
62904;DHT22;49000;50.698;13.322;2023-03-31T02:04:37;7.20;99.90
62904;DHT22;49000;50.698;13.322;2023-03-31T02:07:14;7.00;99.90
62904;DHT22;49000;50.698;13.322;2023-03-31T02:09:44;7.10;99.90
62904;DHT22;49000;50.698;13.322;2023-03-31T02:12:11;7.10;99.90
62904;DHT22;49000;50.698;13.322;2023-03-31T02:14:41;6.50;99.90
62904;DHT22;49000;50.698;13.322;2023-03-31T02:17:10;6.90;99.90
62904;DHT22;49000;50.698;13.322;2023-03-31T02:19:40;6.40;99.90
62904;DHT22;49000;50.698;13.322;2023-03-31T02:22:08;6.40;99.90
62904;DHT22;49000;50.698;13.322;2023-03-31T02:24:37;6.70;99.90
62904;DHT22;49000;50.698;13.322;2023-03-31T02:27:14;6.70;99.90
62904;DHT22;49000;50.698;13.322;2023-03-31T02:29:41;7.00;99.90
62904;DHT22;49000;50.698;13.322;2023-03-31T02:32:23;6.70;99.90
62904;DHT22;49000;50.698;13.322;2023-03-31T02:34:50;6.80;99.90
62904;DHT22;49000;50.698;13.322;2023-03-31T02:37:16;6.50;99.90
62904;DHT22;49000;50.698;13.322;2023-03-31T02:39:44;7.00;99.90
62904;DHT22;49000;50.698;13.322;2023-03-31T02:42:10;7.00;99.90
62904;DHT22;49000;50.698;13.322;2023-03-31T02:44:38;7.00;99.90
62904;DHT22;49000;50.698;13.322;2023-03-31T02:47:06;6.50;99.90
62904;DHT22;49000;50.698;13.322;2023-03-31T02:49:33;6.60;99.90
62904;DHT22;49000;50.698;13.322;2023-03-31T02:57:57;7.10;99.90
62904;DHT22;49000;50.698;13.322;2023-03-31T03:01:27;7.00;99.90
62904;DHT22;49000;50.698;13.322;2023-03-31T03:03:42;6.70;99.90
62904;DHT22;49000;50.698;13.322;2023-03-31T03:12:28;6.80;99.90
62904;DHT22;49000;50.698;13.322;2023-03-31T03:15:06;6.90;99.90
62904;DHT22;49000;50.698;13.322;2023-03-31T03:17:41;7.10;99.90
62904;DHT22;49000;50.698;13.322;2023-03-31T03:20:09;6.90;99.90
62904;DHT22;49000;50.698;13.322;2023-03-31T03:22:36;7.10;99.90
62904;DHT22;49000;50.698;13.322;2023-03-31T03:25:03;6.90;99.90
62904;DHT22;49000;50.698;13.322;2023-03-31T03:27:29;7.10;99.90
62904;DHT22;49000;50.698;13.322;2023-03-31T03:29:54;6.90;99.90
62904;DHT22;49000;50.698;13.322;2023-03-31T03:32:20;7.10;99.90
62904;DHT22;49000;50.698;13.322;2023-03-31T03:34:46;6.80;99.90
62904;DHT22;49000;50.698;13.322;2023-03-31T03:37:12;7.00;99.90
62904;DHT22;49000;50.698;13.322;2023-03-31T03:39:37;7.00;99.90
62904;DHT22;49000;50.698;13.322;2023-03-31T03:42:03;6.60;99.90
62904;DHT22;49000;50.698;13.322;2023-03-31T03:44:28;6.80;99.90
62904;DHT22;49000;50.698;13.322;2023-03-31T03:46:54;6.60;99.90
62904;DHT22;49000;50.698;13.322;2023-03-31T03:49:19;6.80;99.90
62904;DHT22;49000;50.698;13.322;2023-03-31T03:51:45;6.60;99.90
62904;DHT22;49000;50.698;13.322;2023-03-31T03:54:11;6.50;99.90
62904;DHT22;49000;50.698;13.322;2023-03-31T03:56:37;6.60;99.90
62904;DHT22;49000;50.698;13.322;2023-03-31T03:59:02;6.30;99.90
62904;DHT22;49000;50.698;13.322;2023-03-31T04:01:28;6.20;99.90
62904;DHT22;49000;50.698;13.322;2023-03-31T04:03:53;6.70;99.90
62904;DHT22;49000;50.698;13.322;2023-03-31T04:06:19;6.50;99.90
62904;DHT22;49000;50.698;13.322;2023-03-31T04:08:45;6.40;99.90
62904;DHT22;49000;50.698;13.322;2023-03-31T04:11:15;6.00;99.90
62904;DHT22;49000;50.698;13.322;2023-03-31T04:13:42;6.10;99.90
62904;DHT22;49000;50.698;13.322;2023-03-31T04:16:07;6.70;99.90
62904;DHT22;49000;50.698;13.322;2023-03-31T04:18:33;6.40;99.90
62904;DHT22;49000;50.698;13.322;2023-03-31T04:21:01;6.20;99.90
62904;DHT22;49000;50.698;13.322;2023-03-31T04:23:31;6.30;99.90
62904;DHT22;49000;50.698;13.322;2023-03-31T04:25:57;6.60;99.90
62904;DHT22;49000;50.698;13.322;2023-03-31T04:28:22;6.60;99.90
62904;DHT22;49000;50.698;13.322;2023-03-31T04:30:54;6.90;99.90
62904;DHT22;49000;50.698;13.322;2023-03-31T04:33:19;6.90;99.90
62904;DHT22;49000;50.698;13.322;2023-03-31T04:35:46;6.70;99.90
62904;DHT22;49000;50.698;13.322;2023-03-31T04:38:19;6.70;99.90
62904;DHT22;49000;50.698;13.322;2023-03-31T04:40:46;6.50;99.90
62904;DHT22;49000;50.698;13.322;2023-03-31T04:43:12;7.10;99.90
62904;DHT22;49000;50.698;13.322;2023-03-31T04:45:38;6.80;99.90
62904;DHT22;49000;50.698;13.322;2023-03-31T04:48:03;6.70;99.90
62904;DHT22;49000;50.698;13.322;2023-03-31T04:50:29;7.00;99.90
62904;DHT22;49000;50.698;13.322;2023-03-31T04:52:55;6.90;99.90
62904;DHT22;49000;50.698;13.322;2023-03-31T04:55:20;6.90;99.90
62904;DHT22;49000;50.698;13.322;2023-03-31T04:57:46;7.10;99.90
62904;DHT22;49000;50.698;13.322;2023-03-31T05:00:12;6.80;99.90
62904;DHT22;49000;50.698;13.322;2023-03-31T05:02:38;7.10;99.90
62904;DHT22;49000;50.698;13.322;2023-03-31T05:05:03;7.10;99.90
62904;DHT22;49000;50.698;13.322;2023-03-31T05:07:29;7.00;99.90
62904;DHT22;49000;50.698;13.322;2023-03-31T05:09:55;6.70;99.90
62904;DHT22;49000;50.698;13.322;2023-03-31T05:12:20;7.00;99.90
62904;DHT22;49000;50.698;13.322;2023-03-31T05:14:46;7.30;99.90
62904;DHT22;49000;50.698;13.322;2023-03-31T05:17:11;6.90;99.90
62904;DHT22;49000;50.698;13.322;2023-03-31T05:19:36;6.90;99.90
62904;DHT22;49000;50.698;13.322;2023-03-31T05:22:02;7.30;99.90
62904;DHT22;49000;50.698;13.322;2023-03-31T05:24:28;6.90;99.90
62904;DHT22;49000;50.698;13.322;2023-03-31T05:26:54;7.20;99.90
62904;DHT22;49000;50.698;13.322;2023-03-31T05:29:22;6.90;99.90
62904;DHT22;49000;50.698;13.322;2023-03-31T05:31:48;7.50;99.90
62904;DHT22;49000;50.698;13.322;2023-03-31T05:34:14;7.50;99.90
62904;DHT22;49000;50.698;13.322;2023-03-31T05:36:40;7.50;99.90
62904;DHT22;49000;50.698;13.322;2023-03-31T05:39:07;7.20;99.90
62904;DHT22;49000;50.698;13.322;2023-03-31T05:41:33;7.60;99.90
62904;DHT22;49000;50.698;13.322;2023-03-31T05:43:58;7.50;99.90
62904;DHT22;49000;50.698;13.322;2023-03-31T05:46:24;7.50;99.90
62904;DHT22;49000;50.698;13.322;2023-03-31T05:48:51;7.80;99.90
62904;DHT22;49000;50.698;13.322;2023-03-31T05:51:16;7.50;99.90
62904;DHT22;49000;50.698;13.322;2023-03-31T05:53:42;7.60;99.90
62904;DHT22;49000;50.698;13.322;2023-03-31T05:56:08;7.90;99.90
62904;DHT22;49000;50.698;13.322;2023-03-31T05:58:34;8.00;99.90
62904;DHT22;49000;50.698;13.322;2023-03-31T06:01:06;8.20;99.90
62904;DHT22;49000;50.698;13.322;2023-03-31T06:03:33;8.10;99.90
62904;DHT22;49000;50.698;13.322;2023-03-31T06:05:59;8.20;99.90
62904;DHT22;49000;50.698;13.322;2023-03-31T06:08:26;8.30;99.90
62904;DHT22;49000;50.698;13.322;2023-03-31T06:10:52;8.30;99.90
62904;DHT22;49000;50.698;13.322;2023-03-31T06:13:17;8.40;99.90
62904;DHT22;49000;50.698;13.322;2023-03-31T06:15:43;8.40;99.90
62904;DHT22;49000;50.698;13.322;2023-03-31T06:18:16;8.50;99.90
62904;DHT22;49000;50.698;13.322;2023-03-31T06:20:41;8.60;99.90
62904;DHT22;49000;50.698;13.322;2023-03-31T06:23:07;8.70;99.90
62904;DHT22;49000;50.698;13.322;2023-03-31T06:25:32;8.80;99.90
62904;DHT22;49000;50.698;13.322;2023-03-31T06:27:58;8.80;99.90
62904;DHT22;49000;50.698;13.322;2023-03-31T06:30:23;8.90;99.90
62904;DHT22;49000;50.698;13.322;2023-03-31T06:32:49;8.90;99.90
62904;DHT22;49000;50.698;13.322;2023-03-31T06:35:14;9.00;99.90
62904;DHT22;49000;50.698;13.322;2023-03-31T06:37:40;9.00;99.90
62904;DHT22;49000;50.698;13.322;2023-03-31T06:40:06;9.10;99.90
62904;DHT22;49000;50.698;13.322;2023-03-31T06:42:31;9.10;99.90
62904;DHT22;49000;50.698;13.322;2023-03-31T06:44:57;9.10;99.90
62904;DHT22;49000;50.698;13.322;2023-03-31T06:47:22;9.20;99.90
62904;DHT22;49000;50.698;13.322;2023-03-31T06:49:48;9.30;99.90
62904;DHT22;49000;50.698;13.322;2023-03-31T06:52:13;9.30;99.90
62904;DHT22;49000;50.698;13.322;2023-03-31T06:54:39;9.30;99.90
62904;DHT22;49000;50.698;13.322;2023-03-31T06:57:05;9.30;99.90
62904;DHT22;49000;50.698;13.322;2023-03-31T06:59:30;9.50;99.90
62904;DHT22;49000;50.698;13.322;2023-03-31T07:01:56;9.50;99.90
62904;DHT22;49000;50.698;13.322;2023-03-31T07:04:21;9.60;99.90
62904;DHT22;49000;50.698;13.322;2023-03-31T07:06:46;9.70;99.90
62904;DHT22;49000;50.698;13.322;2023-03-31T07:09:12;9.80;99.90
62904;DHT22;49000;50.698;13.322;2023-03-31T07:11:37;9.90;99.90
62904;DHT22;49000;50.698;13.322;2023-03-31T07:14:03;10.10;99.90
62904;DHT22;49000;50.698;13.322;2023-03-31T07:16:28;10.30;99.90
62904;DHT22;49000;50.698;13.322;2023-03-31T07:18:55;10.40;99.90
62904;DHT22;49000;50.698;13.322;2023-03-31T07:21:24;10.40;99.90
62904;DHT22;49000;50.698;13.322;2023-03-31T07:23:49;10.40;99.90
62904;DHT22;49000;50.698;13.322;2023-03-31T07:26:15;10.40;99.90
62904;DHT22;49000;50.698;13.322;2023-03-31T07:28:40;10.40;99.90
62904;DHT22;49000;50.698;13.322;2023-03-31T07:31:13;10.40;99.90
62904;DHT22;49000;50.698;13.322;2023-03-31T07:33:39;10.40;99.90
62904;DHT22;49000;50.698;13.322;2023-03-31T07:36:05;10.40;99.90
62904;DHT22;49000;50.698;13.322;2023-03-31T07:38:31;10.30;99.90
62904;DHT22;49000;50.698;13.322;2023-03-31T07:40:57;10.30;99.90
62904;DHT22;49000;50.698;13.322;2023-03-31T07:43:22;10.40;99.90
62904;DHT22;49000;50.698;13.322;2023-03-31T07:45:48;10.50;99.90
62904;DHT22;49000;50.698;13.322;2023-03-31T07:48:13;10.60;99.90
62904;DHT22;49000;50.698;13.322;2023-03-31T07:50:39;10.70;99.90
62904;DHT22;49000;50.698;13.322;2023-03-31T07:53:04;10.70;99.90
62904;DHT22;49000;50.698;13.322;2023-03-31T07:55:30;10.80;99.90
62904;DHT22;49000;50.698;13.322;2023-03-31T07:57:55;10.70;99.90
62904;DHT22;49000;50.698;13.322;2023-03-31T08:00:21;10.70;99.90
62904;DHT22;49000;50.698;13.322;2023-03-31T08:02:47;10.70;99.90
62904;DHT22;49000;50.698;13.322;2023-03-31T08:05:15;10.70;99.90
62904;DHT22;49000;50.698;13.322;2023-03-31T08:07:43;10.70;99.90
62904;DHT22;49000;50.698;13.322;2023-03-31T08:10:11;10.70;99.90
62904;DHT22;49000;50.698;13.322;2023-03-31T08:12:37;10.60;99.90
62904;DHT22;49000;50.698;13.322;2023-03-31T08:15:03;10.50;99.90
62904;DHT22;49000;50.698;13.322;2023-03-31T08:17:29;10.40;99.90
62904;DHT22;49000;50.698;13.322;2023-03-31T08:19:55;10.30;99.90
62904;DHT22;49000;50.698;13.322;2023-03-31T08:22:20;10.30;99.90
62904;DHT22;49000;50.698;13.322;2023-03-31T08:24:47;10.30;99.90
62904;DHT22;49000;50.698;13.322;2023-03-31T08:27:13;10.20;99.90
62904;DHT22;49000;50.698;13.322;2023-03-31T08:29:38;10.20;99.90
62904;DHT22;49000;50.698;13.322;2023-03-31T08:32:04;10.10;99.90
62904;DHT22;49000;50.698;13.322;2023-03-31T08:34:29;10.10;99.90
62904;DHT22;49000;50.698;13.322;2023-03-31T08:36:55;10.10;99.90
62904;DHT22;49000;50.698;13.322;2023-03-31T08:39:20;10.10;99.90
62904;DHT22;49000;50.698;13.322;2023-03-31T08:41:57;10.20;99.90
62904;DHT22;49000;50.698;13.322;2023-03-31T08:46:58;10.20;99.90
62904;DHT22;49000;50.698;13.322;2023-03-31T08:49:25;10.20;99.90
62904;DHT22;49000;50.698;13.322;2023-03-31T08:51:58;10.20;99.90
62904;DHT22;49000;50.698;13.322;2023-03-31T08:54:38;10.20;99.90
62904;DHT22;49000;50.698;13.322;2023-03-31T08:57:32;10.20;99.90
62904;DHT22;49000;50.698;13.322;2023-03-31T08:59:56;10.20;99.90
62904;DHT22;49000;50.698;13.322;2023-03-31T09:02:50;10.20;99.90
62904;DHT22;49000;50.698;13.322;2023-03-31T09:05:40;10.10;99.90
62904;DHT22;49000;50.698;13.322;2023-03-31T09:08:30;10.10;99.90
62904;DHT22;49000;50.698;13.322;2023-03-31T09:11:10;10.00;99.90
62904;DHT22;49000;50.698;13.322;2023-03-31T09:13:52;9.90;99.90
62904;DHT22;49000;50.698;13.322;2023-03-31T09:16:23;9.90;99.90
62904;DHT22;49000;50.698;13.322;2023-03-31T09:18:53;9.90;99.90
62904;DHT22;49000;50.698;13.322;2023-03-31T09:21:48;9.90;99.90
62904;DHT22;49000;50.698;13.322;2023-03-31T09:24:29;9.90;99.90
62904;DHT22;49000;50.698;13.322;2023-03-31T09:27:06;9.90;99.90
62904;DHT22;49000;50.698;13.322;2023-03-31T09:32:22;9.90;99.90
62904;DHT22;49000;50.698;13.322;2023-03-31T09:34:55;9.90;99.90
62904;DHT22;49000;50.698;13.322;2023-03-31T09:37:22;9.80;99.90
62904;DHT22;49000;50.698;13.322;2023-03-31T09:39:49;9.80;99.90
62904;DHT22;49000;50.698;13.322;2023-03-31T09:42:14;9.80;99.90
62904;DHT22;49000;50.698;13.322;2023-03-31T09:44:43;9.80;99.90
62904;DHT22;49000;50.698;13.322;2023-03-31T09:47:15;9.80;99.90
62904;DHT22;49000;50.698;13.322;2023-03-31T09:49:45;9.80;99.90
62904;DHT22;49000;50.698;13.322;2023-03-31T09:52:29;9.80;99.90
62904;DHT22;49000;50.698;13.322;2023-03-31T09:54:58;9.70;99.90
62904;DHT22;49000;50.698;13.322;2023-03-31T09:57:25;9.60;99.90
62904;DHT22;49000;50.698;13.322;2023-03-31T09:59:52;9.50;99.90
62904;DHT22;49000;50.698;13.322;2023-03-31T10:02:33;9.40;99.90
62904;DHT22;49000;50.698;13.322;2023-03-31T10:05:00;9.40;99.90
62904;DHT22;49000;50.698;13.322;2023-03-31T10:07:26;9.50;99.90
62904;DHT22;49000;50.698;13.322;2023-03-31T10:09:53;9.50;99.90
62904;DHT22;49000;50.698;13.322;2023-03-31T10:12:22;9.50;99.90
62904;DHT22;49000;50.698;13.322;2023-03-31T10:14:51;9.50;99.90
62904;DHT22;49000;50.698;13.322;2023-03-31T10:17:18;9.50;99.90
62904;DHT22;49000;50.698;13.322;2023-03-31T10:19:53;9.50;99.90
62904;DHT22;49000;50.698;13.322;2023-03-31T10:24:46;9.50;99.90
62904;DHT22;49000;50.698;13.322;2023-03-31T10:27:24;9.50;99.90
62904;DHT22;49000;50.698;13.322;2023-03-31T10:29:52;9.60;99.90
62904;DHT22;49000;50.698;13.322;2023-03-31T10:32:25;9.60;99.90
62904;DHT22;49000;50.698;13.322;2023-03-31T10:34:54;9.60;99.90
62904;DHT22;49000;50.698;13.322;2023-03-31T10:37:23;9.70;99.90
62904;DHT22;49000;50.698;13.322;2023-03-31T10:39:57;9.70;99.90
62904;DHT22;49000;50.698;13.322;2023-03-31T10:42:24;9.80;99.90
62904;DHT22;49000;50.698;13.322;2023-03-31T10:45:12;9.80;99.90
62904;DHT22;49000;50.698;13.322;2023-03-31T10:47:49;9.80;99.90
62904;DHT22;49000;50.698;13.322;2023-03-31T10:50:17;9.80;99.90
62904;DHT22;49000;50.698;13.322;2023-03-31T10:52:48;9.80;99.90
62904;DHT22;49000;50.698;13.322;2023-03-31T10:55:25;9.80;99.90
62904;DHT22;49000;50.698;13.322;2023-03-31T10:58:23;9.70;99.90
62904;DHT22;49000;50.698;13.322;2023-03-31T11:01:05;9.60;99.90
62904;DHT22;49000;50.698;13.322;2023-03-31T11:04:15;9.50;99.90
62904;DHT22;49000;50.698;13.322;2023-03-31T11:07:07;9.30;99.90
62904;DHT22;49000;50.698;13.322;2023-03-31T11:12:31;9.20;99.90
62904;DHT22;49000;50.698;13.322;2023-03-31T11:15:29;9.20;99.90
62904;DHT22;49000;50.698;13.322;2023-03-31T11:18:33;9.20;99.90
62904;DHT22;49000;50.698;13.322;2023-03-31T11:26:26;9.40;99.90
62904;DHT22;49000;50.698;13.322;2023-03-31T11:29:21;9.40;99.90
62904;DHT22;49000;50.698;13.322;2023-03-31T11:32:27;9.50;99.90
62904;DHT22;49000;50.698;13.322;2023-03-31T11:38:07;9.50;99.90
62904;DHT22;49000;50.698;13.322;2023-03-31T11:40:55;9.40;99.90
62904;DHT22;49000;50.698;13.322;2023-03-31T11:43:38;9.30;99.90
62904;DHT22;49000;50.698;13.322;2023-03-31T11:46:12;9.40;99.90
62904;DHT22;49000;50.698;13.322;2023-03-31T11:51:59;9.40;99.90
62904;DHT22;49000;50.698;13.322;2023-03-31T11:54:06;9.40;99.90
62904;DHT22;49000;50.698;13.322;2023-03-31T11:56:38;9.40;99.90
62904;DHT22;49000;50.698;13.322;2023-03-31T11:59:06;9.30;99.90
62904;DHT22;49000;50.698;13.322;2023-03-31T12:01:47;9.20;99.90
62904;DHT22;49000;50.698;13.322;2023-03-31T12:04:32;9.30;99.90
62904;DHT22;49000;50.698;13.322;2023-03-31T12:07:23;9.30;99.90
62904;DHT22;49000;50.698;13.322;2023-03-31T12:10:04;9.20;99.90
62904;DHT22;49000;50.698;13.322;2023-03-31T12:12:39;9.30;99.90
62904;DHT22;49000;50.698;13.322;2023-03-31T12:15:28;9.30;99.90
62904;DHT22;49000;50.698;13.322;2023-03-31T12:17:59;9.30;99.90
62904;DHT22;49000;50.698;13.322;2023-03-31T12:20:33;9.30;99.90
62904;DHT22;49000;50.698;13.322;2023-03-31T12:23:01;9.30;99.90
62904;DHT22;49000;50.698;13.322;2023-03-31T12:25:46;9.20;99.90
62904;DHT22;49000;50.698;13.322;2023-03-31T12:28:12;9.10;99.90
62904;DHT22;49000;50.698;13.322;2023-03-31T12:30:40;9.20;99.90
62904;DHT22;49000;50.698;13.322;2023-03-31T12:33:40;9.10;99.90
62904;DHT22;49000;50.698;13.322;2023-03-31T12:36:28;9.10;99.90
62904;DHT22;49000;50.698;13.322;2023-03-31T12:39:09;9.20;99.90
62904;DHT22;49000;50.698;13.322;2023-03-31T12:42:05;9.20;99.90
62904;DHT22;49000;50.698;13.322;2023-03-31T12:44:55;9.10;99.90
62904;DHT22;49000;50.698;13.322;2023-03-31T12:47:34;9.20;99.90
62904;DHT22;49000;50.698;13.322;2023-03-31T12:52:50;9.30;99.90
62904;DHT22;49000;50.698;13.322;2023-03-31T12:55:39;9.40;99.90
62904;DHT22;49000;50.698;13.322;2023-03-31T13:03:42;9.70;99.90
62904;DHT22;49000;50.698;13.322;2023-03-31T13:06:11;9.80;99.90
62904;DHT22;49000;50.698;13.322;2023-03-31T13:09:06;9.80;99.90
62904;DHT22;49000;50.698;13.322;2023-03-31T13:11:51;9.70;99.90
62904;DHT22;49000;50.698;13.322;2023-03-31T13:14:22;9.70;99.90
62904;DHT22;49000;50.698;13.322;2023-03-31T13:16:50;9.60;99.90
62904;DHT22;49000;50.698;13.322;2023-03-31T13:19:33;9.60;99.90
62904;DHT22;49000;50.698;13.322;2023-03-31T13:22:01;9.60;99.90
62904;DHT22;49000;50.698;13.322;2023-03-31T13:24:29;9.70;99.90
62904;DHT22;49000;50.698;13.322;2023-03-31T13:26:57;9.80;99.90
62904;DHT22;49000;50.698;13.322;2023-03-31T13:29:40;9.70;99.90
62904;DHT22;49000;50.698;13.322;2023-03-31T13:32:17;9.70;99.90
62904;DHT22;49000;50.698;13.322;2023-03-31T13:35:04;9.40;99.90
62904;DHT22;49000;50.698;13.322;2023-03-31T13:38:01;9.50;99.90
62904;DHT22;49000;50.698;13.322;2023-03-31T13:51:34;9.10;99.90
62904;DHT22;49000;50.698;13.322;2023-03-31T13:56:54;9.30;99.90
62904;DHT22;49000;50.698;13.322;2023-03-31T14:05:42;10.50;99.90
62904;DHT22;49000;50.698;13.322;2023-03-31T14:14:14;13.00;99.90
62904;DHT22;49000;50.698;13.322;2023-03-31T14:16:50;13.40;99.90
62904;DHT22;49000;50.698;13.322;2023-03-31T14:22:29;13.30;99.90
62904;DHT22;49000;50.698;13.322;2023-03-31T14:25:15;13.30;99.90
62904;DHT22;49000;50.698;13.322;2023-03-31T14:28:02;13.50;99.90
62904;DHT22;49000;50.698;13.322;2023-03-31T14:31:18;13.70;99.90
62904;DHT22;49000;50.698;13.322;2023-03-31T14:39:05;13.50;99.90
62904;DHT22;49000;50.698;13.322;2023-03-31T14:41:31;13.60;91.60
62904;DHT22;49000;50.698;13.322;2023-03-31T14:44:00;13.70;82.50
62904;DHT22;49000;50.698;13.322;2023-03-31T14:46:29;14.10;79.70
62904;DHT22;49000;50.698;13.322;2023-03-31T14:49:06;14.50;68.20
62904;DHT22;49000;50.698;13.322;2023-03-31T14:51:42;14.20;56.30
62904;DHT22;49000;50.698;13.322;2023-03-31T14:54:15;13.90;56.90
62904;DHT22;49000;50.698;13.322;2023-03-31T14:56:42;13.40;63.60
62904;DHT22;49000;50.698;13.322;2023-03-31T14:59:09;12.90;66.20
62904;DHT22;49000;50.698;13.322;2023-03-31T15:01:37;12.60;71.50
62904;DHT22;49000;50.698;13.322;2023-03-31T15:04:08;12.40;81.20
62904;DHT22;49000;50.698;13.322;2023-03-31T15:06:34;12.30;80.10
62904;DHT22;49000;50.698;13.322;2023-03-31T15:09:03;12.30;81.90
62904;DHT22;49000;50.698;13.322;2023-03-31T15:11:29;12.20;83.40
62904;DHT22;49000;50.698;13.322;2023-03-31T15:13:56;12.20;75.60
62904;DHT22;49000;50.698;13.322;2023-03-31T15:16:44;12.20;84.90
62904;DHT22;49000;50.698;13.322;2023-03-31T15:19:21;12.30;59.70
62904;DHT22;49000;50.698;13.322;2023-03-31T15:22:11;12.40;61.50
62904;DHT22;49000;50.698;13.322;2023-03-31T15:24:38;12.40;55.00
62904;DHT22;49000;50.698;13.322;2023-03-31T15:27:32;12.20;57.30
62904;DHT22;49000;50.698;13.322;2023-03-31T15:30:02;12.00;59.60
62904;DHT22;49000;50.698;13.322;2023-03-31T15:32:34;12.20;54.10
62904;DHT22;49000;50.698;13.322;2023-03-31T15:35:00;12.30;59.90
62904;DHT22;49000;50.698;13.322;2023-03-31T15:37:39;12.20;52.00
62904;DHT22;49000;50.698;13.322;2023-03-31T15:40:18;12.00;62.80
62904;DHT22;49000;50.698;13.322;2023-03-31T15:42:45;11.70;53.10
62904;DHT22;49000;50.698;13.322;2023-03-31T15:45:34;11.40;65.80
62904;DHT22;49000;50.698;13.322;2023-03-31T15:48:02;11.00;82.80
62904;DHT22;49000;50.698;13.322;2023-03-31T15:50:28;10.70;91.30
62904;DHT22;49000;50.698;13.322;2023-03-31T15:52:55;10.80;97.30
62904;DHT22;49000;50.698;13.322;2023-03-31T15:55:28;11.10;99.90
62904;DHT22;49000;50.698;13.322;2023-03-31T15:57:56;11.40;96.90
62904;DHT22;49000;50.698;13.322;2023-03-31T16:00:41;11.60;92.40
62904;DHT22;49000;50.698;13.322;2023-03-31T16:03:17;12.00;87.40
62904;DHT22;49000;50.698;13.322;2023-03-31T16:05:57;12.20;85.80
62904;DHT22;49000;50.698;13.322;2023-03-31T16:08:29;12.60;78.70
62904;DHT22;49000;50.698;13.322;2023-03-31T16:11:08;12.80;64.90
62904;DHT22;49000;50.698;13.322;2023-03-31T16:13:39;12.80;67.90
62904;DHT22;49000;50.698;13.322;2023-03-31T16:16:15;12.60;66.30
62904;DHT22;49000;50.698;13.322;2023-03-31T16:18:58;12.50;68.90
62904;DHT22;49000;50.698;13.322;2023-03-31T16:21:26;12.40;68.70
62904;DHT22;49000;50.698;13.322;2023-03-31T16:23:55;12.20;69.60
62904;DHT22;49000;50.698;13.322;2023-03-31T16:26:23;12.00;71.30
62904;DHT22;49000;50.698;13.322;2023-03-31T16:28:50;11.80;72.60
62904;DHT22;49000;50.698;13.322;2023-03-31T16:33:55;11.60;84.30
62904;DHT22;49000;50.698;13.322;2023-03-31T16:36:21;11.40;90.00
62904;DHT22;49000;50.698;13.322;2023-03-31T16:38:46;11.30;90.50
62904;DHT22;49000;50.698;13.322;2023-03-31T16:41:11;11.30;88.90
62904;DHT22;49000;50.698;13.322;2023-03-31T16:43:40;11.40;90.50
62904;DHT22;49000;50.698;13.322;2023-03-31T16:46:08;11.40;90.30
62904;DHT22;49000;50.698;13.322;2023-03-31T16:48:33;11.30;90.80
62904;DHT22;49000;50.698;13.322;2023-03-31T16:50:59;11.20;88.70
62904;DHT22;49000;50.698;13.322;2023-03-31T16:53:27;11.10;91.50
62904;DHT22;49000;50.698;13.322;2023-03-31T16:55:54;11.00;86.40
62904;DHT22;49000;50.698;13.322;2023-03-31T16:58:20;10.80;93.50
62904;DHT22;49000;50.698;13.322;2023-03-31T17:00:48;10.80;95.10
62904;DHT22;49000;50.698;13.322;2023-03-31T17:03:14;10.80;91.20
62904;DHT22;49000;50.698;13.322;2023-03-31T17:05:43;10.60;96.60
62904;DHT22;49000;50.698;13.322;2023-03-31T17:08:10;10.50;99.90
62904;DHT22;49000;50.698;13.322;2023-03-31T17:10:37;10.50;99.90
62904;DHT22;49000;50.698;13.322;2023-03-31T17:13:03;10.40;99.90
62904;DHT22;49000;50.698;13.322;2023-03-31T17:15:29;10.40;99.90
62904;DHT22;49000;50.698;13.322;2023-03-31T17:17:55;10.30;99.90
62904;DHT22;49000;50.698;13.322;2023-03-31T17:20:25;10.20;99.90
62904;DHT22;49000;50.698;13.322;2023-03-31T17:22:51;10.10;99.90
62904;DHT22;49000;50.698;13.322;2023-03-31T17:25:17;9.90;99.90